createdAt,value
2019-05-29T00:01:56.316Z,24.55
2019-05-29T00:04:25.312Z,26.57
2019-05-29T00:06:54.303Z,23.55
2019-05-29T00:09:23.297Z,23.77
2019-05-29T00:11:52.393Z,21.77
2019-05-29T00:14:27.247Z,21.43
2019-05-29T00:16:51.913Z,20.23
2019-05-29T00:19:20.806Z,18.50
2019-05-29T00:21:50.720Z,21.12
2019-05-29T00:24:19.715Z,19.05
2019-05-29T00:26:49.728Z,17.32
2019-05-29T00:29:18.623Z,19.23
2019-05-29T00:31:47.612Z,19.82
2019-05-29T00:34:17.245Z,17.25
2019-05-29T00:36:46.522Z,19.40
2019-05-29T00:39:16.823Z,17.70
2019-05-29T00:41:45.940Z,16.67
2019-05-29T00:44:15.396Z,15.50
2019-05-29T00:46:44.951Z,13.98
2019-05-29T00:49:15.985Z,15.43
2019-05-29T00:51:45.395Z,13.48
2019-05-29T00:54:16.449Z,15.87
2019-05-29T00:56:45.844Z,12.75
2019-05-29T00:59:15.760Z,12.98
2019-05-29T01:01:45.054Z,14.75
2019-05-29T01:04:15.661Z,12.65
2019-05-29T01:06:44.578Z,12.10
2019-05-29T01:09:14.448Z,12.17
2019-05-29T01:11:44.416Z,12.15
2019-05-29T01:14:13.610Z,10.65
2019-05-29T01:16:44.853Z,10.45
2019-05-29T01:19:25.850Z,11.10
2019-05-29T01:21:56.462Z,11.10
2019-05-29T01:24:26.577Z,9.23
2019-05-29T01:26:56.799Z,12.75
2019-05-29T01:29:25.794Z,10.38
2019-05-29T01:31:54.798Z,9.90
2019-05-29T01:34:24.194Z,9.00
2019-05-29T01:36:53.393Z,9.13
2019-05-29T01:39:23.392Z,8.58
2019-05-29T01:41:54.750Z,6.67
2019-05-29T01:44:24.065Z,8.38
2019-05-29T01:46:54.271Z,9.35
2019-05-29T01:49:23.844Z,7.40
2019-05-29T01:51:52.879Z,6.72
2019-05-29T01:54:21.865Z,6.83
2019-05-29T01:56:50.859Z,6.70
2019-05-29T01:59:21.826Z,6.22
2019-05-29T02:01:50.996Z,8.73
2019-05-29T02:04:20.295Z,6.37
2019-05-29T02:06:49.289Z,6.55
2019-05-29T02:09:20.278Z,5.75
2019-05-29T02:11:49.735Z,5.45
2019-05-29T02:14:18.727Z,6.42
2019-05-29T02:16:48.128Z,6.25
2019-05-29T02:19:17.772Z,6.57
2019-05-29T02:21:48.575Z,4.40
2019-05-29T02:24:17.464Z,4.20
2019-05-29T02:26:46.772Z,5.00
2019-05-29T02:29:16.427Z,7.70
2019-05-29T02:31:45.979Z,5.10
2019-05-29T02:34:19.992Z,7.10
2019-05-29T02:36:49.189Z,4.22
2019-05-29T02:39:21.222Z,4.90
2019-05-29T02:41:51.188Z,3.80
2019-05-29T02:44:21.188Z,3.80
2019-05-29T02:46:50.383Z,4.40
2019-05-29T02:49:19.896Z,3.75
2019-05-29T02:51:49.290Z,3.80
2019-05-29T02:54:20.177Z,3.47
2019-05-29T02:56:50.042Z,4.85
2019-05-29T02:59:18.931Z,3.55
2019-05-29T03:01:48.337Z,3.27
2019-05-29T03:04:18.997Z,3.52
2019-05-29T03:06:48.471Z,2.60
2019-05-29T03:09:17.779Z,2.80
2019-05-29T03:11:47.174Z,35.73
2019-05-29T03:14:16.373Z,244.53
2019-05-29T03:16:45.709Z,304.80
2019-05-29T03:19:15.185Z,264.82
2019-05-29T03:21:45.184Z,239.90
2019-05-29T03:24:14.597Z,217.30
2019-05-29T03:26:45.742Z,204.70
2019-05-29T03:29:14.933Z,201.58
2019-05-29T03:31:47.878Z,183.03
2019-05-29T03:34:16.613Z,180.55
2019-05-29T03:36:48.020Z,165.00
2019-05-29T03:39:16.444Z,161.92
2019-05-29T03:41:47.289Z,151.95
2019-05-29T03:44:17.203Z,140.57
2019-05-29T03:46:46.819Z,142.40
2019-05-29T03:49:17.034Z,135.28
2019-05-29T03:51:46.335Z,133.22
2019-05-29T03:54:16.859Z,125.33
2019-05-29T03:56:46.473Z,123.42
2019-05-29T03:59:16.076Z,115.32
2019-05-29T04:01:45.051Z,118.33
2019-05-29T04:04:16.818Z,107.37
2019-05-29T04:06:47.562Z,112.50
2019-05-29T04:09:17.376Z,102.32
2019-05-29T04:11:46.567Z,98.95
2019-05-29T04:14:15.861Z,93.07
2019-05-29T04:16:59.061Z,92.57
2019-05-29T04:19:15.999Z,85.77
2019-05-29T04:21:46.530Z,150.93
2019-05-29T04:24:16.135Z,306.40
2019-05-29T04:26:46.562Z,383.90
2019-05-29T04:29:16.070Z,426.00
2019-05-29T04:31:44.971Z,284.15
2019-05-29T04:34:14.053Z,336.90
2019-05-29T04:36:42.960Z,351.67
2019-05-29T04:39:11.938Z,319.73
2019-05-29T04:41:42.160Z,272.88
2019-05-29T04:44:11.157Z,286.75
2019-05-29T04:46:40.730Z,243.67
2019-05-29T04:49:11.090Z,226.77
2019-05-29T04:51:40.042Z,117.13
2019-05-29T04:54:09.079Z,126.78
2019-05-29T04:56:40.213Z,79.17
2019-05-29T04:59:11.051Z,101.15
2019-05-29T05:01:39.941Z,67.55
2019-05-29T05:04:09.037Z,12.40
2019-05-29T05:06:39.506Z,42.53
2019-05-29T05:09:09.379Z,56.23
2019-05-29T05:11:39.565Z,92.12
2019-05-29T05:14:08.899Z,43.68
2019-05-29T05:16:37.955Z,67.60
2019-05-29T05:19:07.194Z,37.15
2019-05-29T05:21:38.042Z,22.47
2019-05-29T05:24:07.034Z,12.07
2019-05-29T05:26:36.300Z,323.60
2019-05-29T05:29:11.460Z,21.23
2019-05-29T05:31:42.296Z,12.83
2019-05-29T05:34:11.289Z,6.17
2019-05-29T05:36:41.035Z,160.25
2019-05-29T05:39:10.400Z,9.80
2019-05-29T05:41:39.602Z,10.43
2019-05-29T05:44:08.491Z,9.88
2019-05-29T05:46:37.586Z,8.38
2019-05-29T05:49:06.582Z,7.90
2019-05-29T05:51:38.266Z,3.87
2019-05-29T05:54:06.420Z,7.58
2019-05-29T05:56:35.924Z,3.20
2019-05-29T05:59:05.227Z,2.45
2019-05-29T06:01:34.222Z,3.22
2019-05-29T06:04:03.302Z,4.75
2019-05-29T06:06:32.194Z,4.00
2019-05-29T06:09:01.186Z,1.62
2019-05-29T06:11:30.283Z,3.65
2019-05-29T06:13:59.176Z,4.62
2019-05-29T06:16:28.062Z,5.60
2019-05-29T06:18:57.162Z,4.65
2019-05-29T06:21:26.049Z,4.17
2019-05-29T06:23:55.247Z,4.20
2019-05-29T06:26:24.140Z,2.70
2019-05-29T06:28:54.975Z,3.47
2019-05-29T06:31:27.084Z,2.65
2019-05-29T06:33:54.598Z,2.22
2019-05-29T06:36:23.494Z,7.33
2019-05-29T06:38:52.486Z,3.17
2019-05-29T06:41:22.398Z,2.70
2019-05-29T06:43:51.396Z,2.33
2019-05-29T06:46:20.896Z,1.95
2019-05-29T06:48:59.857Z,2.30
2019-05-29T06:51:21.852Z,2.50
2019-05-29T06:53:50.744Z,1.72
2019-05-29T06:56:20.657Z,2.50
2019-05-29T06:58:49.651Z,4.60
2019-05-29T07:01:18.643Z,5.73
2019-05-29T07:03:48.381Z,4.62
2019-05-29T07:06:17.562Z,2.40
2019-05-29T07:08:49.967Z,1.97
2019-05-29T07:11:19.534Z,3.90
2019-05-29T07:13:50.535Z,3.35
2019-05-29T07:16:19.977Z,4.15
2019-05-29T07:19:22.965Z,2.35
2019-05-29T07:21:19.603Z,3.77
2019-05-29T07:23:48.966Z,2.45
2019-05-29T07:26:19.020Z,1.87
2019-05-29T07:29:06.698Z,2.85
2019-05-29T07:31:19.771Z,2.65
2019-05-29T07:33:48.869Z,2.17
2019-05-29T07:36:18.088Z,2.47
2019-05-29T07:39:01.156Z,1.42
2019-05-29T07:41:17.691Z,2.67
2019-05-29T07:43:48.206Z,2.72
2019-05-29T07:46:17.518Z,5.22
2019-05-29T07:48:48.549Z,2.75
2019-05-29T07:51:17.560Z,3.87
2019-05-29T07:53:48.617Z,5.25
2019-05-29T07:56:22.487Z,2.35
2019-05-29T07:59:00.756Z,2.75
2019-05-29T08:01:19.979Z,2.33
2019-05-29T08:03:49.723Z,4.20
2019-05-29T08:06:20.838Z,5.45
2019-05-29T08:08:49.729Z,1.62
2019-05-29T08:11:19.028Z,1.98
2019-05-29T08:13:48.424Z,5.25
2019-05-29T08:16:17.624Z,1.10
2019-05-29T08:18:49.444Z,2.65
2019-05-29T08:21:17.757Z,0.93
2019-05-29T08:23:48.556Z,3.30
2019-05-29T08:26:18.304Z,1.37
2019-05-29T08:28:48.950Z,3.30
2019-05-29T08:31:18.440Z,1.82
2019-05-29T08:33:48.882Z,4.37
2019-05-29T08:36:18.216Z,3.02
2019-05-29T08:38:47.573Z,3.22
2019-05-29T08:41:16.768Z,1.13
2019-05-29T08:43:46.945Z,2.37
2019-05-29T08:46:16.292Z,2.15
2019-05-29T08:48:48.069Z,2.07
2019-05-29T08:51:17.350Z,1.57
2019-05-29T08:53:48.710Z,2.00
2019-05-29T08:56:19.021Z,1.50
2019-05-29T08:58:49.041Z,0.93
2019-05-29T09:01:18.240Z,2.67
2019-05-29T09:03:48.970Z,3.33
2019-05-29T09:06:18.687Z,2.33
2019-05-29T09:08:48.496Z,0.60
2019-05-29T09:11:18.819Z,5.40
2019-05-29T09:13:50.883Z,7.28
2019-05-29T09:16:19.876Z,1.43
2019-05-29T09:18:48.972Z,1.10
2019-05-29T09:21:19.204Z,1.85
2019-05-29T09:23:48.802Z,3.35
2019-05-29T09:26:22.145Z,0.53
2019-05-29T09:28:48.256Z,1.62
2019-05-29T09:31:18.545Z,2.37
2019-05-29T09:33:48.873Z,1.65
2019-05-29T09:36:18.751Z,1.10
2019-05-29T09:38:48.492Z,1.98
2019-05-29T09:41:19.130Z,3.22
2019-05-29T09:43:58.268Z,1.40
2019-05-29T09:46:20.011Z,1.82
2019-05-29T09:48:50.283Z,1.15
2019-05-29T09:51:21.466Z,3.15
2019-05-29T09:53:50.142Z,1.12
2019-05-29T09:56:19.128Z,1.72
2019-05-29T09:58:48.122Z,1.98
2019-05-29T10:01:24.034Z,1.87
2019-05-29T10:03:48.259Z,2.35
2019-05-29T10:06:17.659Z,1.20
2019-05-29T10:08:46.858Z,0.98
2019-05-29T10:11:16.468Z,1.67
2019-05-29T10:13:46.384Z,0.47
2019-05-29T10:16:16.609Z,0.78
2019-05-29T10:18:46.425Z,1.80
2019-05-29T10:21:15.317Z,1.10
2019-05-29T10:23:44.311Z,1.77
2019-05-29T10:26:13.295Z,1.53
2019-05-29T10:28:57.810Z,1.57
2019-05-29T10:31:12.714Z,0.50
2019-05-29T10:33:42.346Z,4.58
2019-05-29T10:36:11.927Z,1.82
2019-05-29T10:38:42.350Z,0.90
2019-05-29T10:41:11.549Z,0.70
2019-05-29T10:43:40.542Z,0.60
2019-05-29T10:46:09.434Z,2.42
2019-05-29T10:48:38.327Z,0.93
2019-05-29T10:51:07.418Z,1.05
2019-05-29T10:53:36.727Z,2.55
2019-05-29T10:56:06.634Z,0.42
2019-05-29T10:58:48.473Z,3.98
2019-05-29T11:01:12.096Z,0.82
2019-05-29T11:03:42.219Z,0.65
2019-05-29T11:06:15.197Z,0.77
2019-05-29T11:08:44.196Z,0.95
2019-05-29T11:11:13.086Z,1.35
2019-05-29T11:13:42.182Z,0.55
2019-05-29T11:16:11.177Z,0.68
2019-05-29T11:18:40.168Z,0.50
2019-05-29T11:21:09.777Z,3.60
2019-05-29T11:23:38.769Z,0.70
2019-05-29T11:26:08.991Z,0.90
2019-05-29T11:28:38.085Z,1.62
2019-05-29T11:31:07.903Z,1.50
2019-05-29T11:33:38.122Z,0.93
2019-05-29T11:36:13.000Z,0.70
2019-05-29T11:38:37.642Z,0.82
2019-05-29T11:41:25.204Z,0.55
2019-05-29T11:43:40.238Z,0.40
2019-05-29T11:46:09.230Z,2.98
2019-05-29T11:48:40.482Z,2.72
2019-05-29T11:51:10.292Z,0.50
2019-05-29T11:53:39.384Z,1.37
2019-05-29T11:56:09.401Z,0.82
2019-05-29T11:58:40.955Z,0.98
2019-05-29T12:01:10.868Z,0.60
2019-05-29T12:04:06.007Z,1.47
2019-05-29T12:06:12.242Z,1.03
2019-05-29T12:08:41.329Z,0.55
2019-05-29T12:11:10.222Z,1.04
2019-05-29T12:13:39.214Z,0.82
2019-05-29T12:16:08.209Z,0.80
2019-05-29T12:18:37.303Z,1.30
2019-05-29T12:21:06.197Z,1.60
2019-05-29T12:23:36.122Z,0.63
2019-05-29T12:26:19.793Z,0.93
2019-05-29T12:28:38.035Z,0.40
2019-05-29T12:31:07.089Z,1.67
2019-05-29T12:33:37.307Z,0.40
2019-05-29T12:36:06.295Z,0.80
2019-05-29T12:38:35.904Z,1.32
2019-05-29T12:41:06.141Z,0.45
2019-05-29T12:43:35.120Z,0.35
2019-05-29T12:46:04.186Z,0.95
2019-05-29T12:48:33.513Z,0.40
2019-05-29T12:51:03.998Z,0.90
2019-05-29T12:53:34.163Z,0.50
2019-05-29T12:56:04.572Z,0.68
2019-05-29T12:58:34.300Z,0.50
2019-05-29T13:01:04.959Z,0.53
2019-05-29T13:03:34.539Z,0.40
2019-05-29T13:06:04.490Z,0.90
2019-05-29T13:08:33.650Z,1.12
2019-05-29T13:11:02.732Z,0.33
2019-05-29T13:13:32.049Z,0.82
2019-05-29T13:16:00.942Z,0.90
2019-05-29T13:18:30.025Z,0.30
2019-05-29T13:20:58.984Z,0.40
2019-05-29T13:23:27.927Z,0.90
2019-05-29T13:25:57.328Z,0.78
2019-05-29T13:28:26.517Z,0.40
2019-05-29T13:30:55.716Z,0.93
2019-05-29T13:33:26.040Z,0.75
2019-05-29T13:35:56.163Z,0.40
2019-05-29T13:38:31.405Z,0.30
2019-05-29T13:41:06.679Z,0.40
2019-05-29T13:43:36.249Z,0.28
2019-05-29T13:46:05.444Z,0.20
2019-05-29T13:48:34.438Z,2.03
2019-05-29T13:51:03.699Z,0.65
2019-05-29T13:53:33.039Z,2.12
2019-05-29T13:56:02.133Z,0.40
2019-05-29T13:58:31.027Z,1.33
2019-05-29T14:01:00.754Z,0.30
2019-05-29T14:03:30.266Z,0.50
2019-05-29T14:06:02.899Z,1.25
2019-05-29T14:08:31.605Z,0.30
2019-05-29T14:11:00.900Z,1.57
2019-05-29T14:13:30.206Z,1.32
2019-05-29T14:16:00.450Z,0.45
2019-05-29T14:18:30.344Z,3.05
2019-05-29T14:21:00.807Z,0.37
2019-05-29T14:23:30.273Z,0.30
2019-05-29T14:26:00.311Z,1.85
2019-05-29T14:28:30.308Z,0.40
2019-05-29T14:30:59.406Z,1.35
2019-05-29T14:33:28.298Z,0.30
2019-05-29T14:35:57.397Z,0.57
2019-05-29T14:38:26.290Z,2.93
2019-05-29T14:40:55.283Z,0.95
2019-05-29T14:43:24.276Z,2.12
2019-05-29T14:45:53.261Z,0.40
2019-05-29T14:48:23.481Z,2.05
2019-05-29T14:50:52.476Z,1.85
2019-05-29T14:53:21.469Z,0.45
2019-05-29T14:55:54.818Z,0.57
2019-05-29T14:58:32.921Z,0.35
2019-05-29T15:01:07.709Z,1.47
2019-05-29T15:03:43.562Z,0.40
2019-05-29T15:06:21.659Z,0.90
2019-05-29T15:08:56.196Z,1.15
2019-05-29T15:11:32.293Z,0.30
2019-05-29T15:14:12.134Z,4.07
2019-05-29T15:16:44.207Z,1.42
2019-05-29T15:19:18.124Z,0.53
2019-05-29T15:21:51.762Z,0.33
2019-05-29T15:24:24.211Z,1.15
2019-05-29T15:26:57.789Z,0.47
2019-05-29T15:29:38.625Z,1.47
2019-05-29T15:32:18.542Z,1.60
2019-05-29T15:34:51.715Z,0.75
2019-05-29T15:37:28.031Z,0.95
2019-05-29T15:40:06.616Z,0.30
2019-05-29T15:42:43.469Z,0.47
2019-05-29T15:45:16.228Z,0.87
2019-05-29T15:47:49.144Z,1.42
2019-05-29T15:50:23.267Z,1.47
2019-05-29T15:52:56.858Z,0.40
2019-05-29T15:55:34.870Z,0.50
2019-05-29T16:00:38.925Z,0.98
2019-05-29T16:03:15.670Z,0.95
2019-05-29T16:05:53.270Z,1.35
2019-05-29T16:08:25.953Z,0.85
2019-05-29T16:11:04.650Z,1.13
2019-05-29T16:13:39.542Z,0.45
2019-05-29T16:16:17.320Z,0.72
2019-05-29T16:18:49.287Z,0.40
2019-05-29T16:21:23.502Z,0.57
2019-05-29T16:23:58.083Z,1.47
2019-05-29T16:26:38.962Z,1.90
2019-05-29T16:29:17.798Z,0.60
2019-05-29T16:31:52.424Z,2.83
2019-05-29T16:34:29.449Z,1.15
2019-05-29T16:48:29.842Z,2.55
2019-05-29T16:51:01.600Z,1.57
2019-05-29T16:53:34.202Z,1.45
2019-05-29T16:56:04.559Z,122.55
2019-05-29T16:58:35.093Z,55.38
2019-05-29T17:01:13.200Z,202.48
2019-05-29T17:03:54.428Z,108.57
2019-05-29T17:06:26.366Z,62.25
2019-05-29T17:08:59.505Z,47.97
2019-05-29T17:11:36.116Z,85.57
2019-05-29T17:16:40.322Z,18.37
2019-05-29T17:19:14.542Z,10.88
2019-05-29T17:21:49.976Z,6.55
2019-05-29T17:24:23.141Z,5.35
2019-05-29T17:26:57.765Z,5.25
2019-05-29T17:29:34.500Z,203.70
2019-05-29T17:32:06.070Z,139.10
2019-05-29T17:34:39.820Z,64.72
2019-05-29T17:37:12.477Z,49.10
2019-05-29T17:39:44.209Z,102.82
2019-05-29T17:42:16.517Z,56.10
2019-05-29T17:44:51.714Z,45.43
2019-05-29T17:47:25.917Z,97.23
2019-05-29T17:50:00.634Z,42.03
2019-05-29T17:52:36.398Z,22.45
2019-05-29T17:55:09.644Z,15.27
2019-05-29T17:57:45.286Z,7.03
2019-05-29T18:00:22.386Z,6.57
2019-05-29T18:02:52.862Z,2.65
2019-05-29T18:05:31.102Z,2.55
2019-05-29T18:08:02.028Z,1.85
2019-05-29T18:10:31.056Z,2.75
2019-05-29T18:13:01.060Z,2.62
2019-05-29T18:15:30.157Z,0.78
2019-05-29T18:17:59.050Z,2.83
2019-05-29T18:20:28.065Z,1.37
2019-05-29T18:22:57.353Z,4.15
2019-05-29T18:25:26.334Z,1.20
2019-05-29T18:27:55.342Z,1.60
2019-05-29T18:30:24.732Z,0.50
2019-05-29T18:32:54.544Z,1.82
2019-05-29T18:35:24.939Z,0.70
2019-05-29T18:37:54.476Z,1.43
2019-05-29T18:40:24.275Z,1.00
2019-05-29T18:42:53.280Z,1.55
2019-05-29T18:45:24.266Z,1.80
2019-05-29T18:47:54.336Z,2.27
2019-05-29T18:50:23.593Z,0.60
2019-05-29T18:52:53.560Z,27.30
2019-05-29T18:55:22.804Z,154.10
2019-05-29T18:57:51.851Z,173.25
2019-05-29T19:00:21.367Z,66.20
2019-05-29T19:02:55.988Z,35.23
2019-05-29T19:05:25.614Z,17.30
2019-05-29T19:07:54.884Z,12.80
2019-05-29T19:10:23.878Z,4.90
2019-05-29T19:12:52.871Z,4.65
2019-05-29T19:15:21.927Z,3.52
2019-05-29T19:17:51.166Z,4.00
2019-05-29T19:20:22.106Z,2.23
2019-05-29T19:22:50.994Z,2.58
2019-05-29T19:25:20.186Z,1.80
2019-05-29T19:27:49.395Z,1.27
2019-05-29T19:30:20.738Z,3.03
2019-05-29T19:32:49.734Z,1.52
2019-05-29T19:35:18.732Z,3.25
2019-05-29T19:37:47.724Z,0.93
2019-05-29T19:40:16.716Z,1.12
2019-05-29T19:42:46.020Z,1.72
2019-05-29T19:45:15.021Z,1.63
2019-05-29T19:47:44.417Z,2.00
2019-05-29T19:50:13.309Z,2.55
2019-05-29T19:52:45.772Z,2.30
2019-05-29T19:55:15.073Z,1.80
2019-05-29T19:57:55.750Z,1.10
2019-05-29T20:00:16.976Z,2.50
2019-05-29T20:02:46.865Z,1.55
2019-05-29T20:05:16.778Z,3.93
2019-05-29T20:07:46.181Z,1.62
2019-05-29T20:10:15.071Z,1.53
2019-05-29T20:12:44.075Z,1.17
2019-05-29T20:15:12.959Z,2.87
2019-05-29T20:17:42.975Z,0.62
2019-05-29T20:20:11.995Z,0.95
2019-05-29T20:22:41.686Z,0.87
2019-05-29T20:25:13.584Z,2.20
2019-05-29T20:27:41.096Z,1.37
2019-05-29T20:30:19.306Z,467.18
2019-05-29T20:32:49.268Z,92.95
2019-05-29T20:35:18.214Z,237.72
2019-05-29T20:37:47.311Z,285.77
2019-05-29T20:40:17.735Z,280.85
2019-05-29T20:42:46.729Z,172.47
2019-05-29T20:45:16.644Z,133.60
2019-05-29T20:47:45.635Z,82.70
2019-05-29T20:50:17.477Z,147.67
2019-05-29T20:52:47.642Z,164.85
2019-05-29T20:55:16.918Z,178.82
2019-05-29T20:57:47.292Z,193.85
2019-05-29T21:00:18.725Z,127.58
2019-05-29T21:02:48.215Z,82.17
2019-05-29T21:05:18.062Z,67.30
2019-05-29T21:07:47.593Z,47.48
2019-05-29T21:10:17.632Z,28.45
2019-05-29T21:12:47.715Z,27.00
2019-05-29T21:15:20.187Z,29.18
2019-05-29T21:17:50.171Z,91.60
2019-05-29T21:20:19.752Z,117.65
2019-05-29T21:22:49.769Z,240.10
2019-05-29T21:25:19.555Z,261.50
2019-05-29T21:27:49.591Z,371.48
2019-05-29T21:30:25.082Z,228.95
2019-05-29T21:32:53.942Z,305.87
2019-05-29T21:35:23.539Z,268.00
2019-05-29T21:37:52.545Z,264.55
2019-05-29T21:40:21.834Z,205.72
2019-05-29T21:42:51.775Z,157.15
2019-05-29T21:45:21.409Z,161.15
2019-05-29T21:47:50.969Z,172.17
2019-05-29T21:50:20.269Z,140.10
2019-05-29T21:52:49.573Z,135.83
2019-05-29T21:55:20.103Z,110.08
2019-05-29T21:57:50.408Z,111.62
2019-05-29T22:00:21.164Z,110.17
2019-05-29T22:02:50.451Z,100.10
2019-05-29T22:05:21.287Z,94.20
2019-05-29T22:07:52.125Z,78.70
2019-05-29T22:10:21.425Z,74.65
2019-05-29T22:12:50.456Z,74.37
2019-05-29T22:15:19.513Z,68.05
2019-05-29T22:17:49.154Z,58.55
2019-05-29T22:20:19.281Z,52.00
2019-05-29T22:22:49.090Z,60.17
2019-05-29T22:25:19.173Z,44.23
2019-05-29T22:27:49.086Z,43.42
2019-05-29T22:30:18.981Z,45.98
2019-05-29T22:32:47.994Z,48.35
2019-05-29T22:35:17.293Z,50.45
2019-05-29T22:37:46.493Z,42.98
2019-05-29T22:40:15.492Z,44.42
2019-05-29T22:42:44.479Z,116.28
2019-05-29T22:45:13.575Z,161.18
2019-05-29T22:47:42.874Z,282.45
2019-05-29T22:50:14.399Z,441.52
2019-05-29T22:52:44.480Z,540.77
2019-05-29T22:55:13.439Z,599.20
2019-05-29T22:57:42.509Z,659.10
2019-05-29T23:00:12.043Z,661.17
2019-05-29T23:02:41.033Z,647.67
2019-05-29T23:05:10.639Z,618.37
2019-05-29T23:07:39.733Z,607.60
2019-05-29T23:10:09.036Z,576.60
2019-05-29T23:12:40.074Z,562.25
2019-05-29T23:15:11.531Z,539.27
2019-05-29T23:17:40.520Z,504.12
2019-05-29T23:20:09.516Z,500.64
2019-05-29T23:22:38.872Z,474.70
2019-05-29T23:25:07.811Z,460.82
2019-05-29T23:27:37.200Z,431.60
2019-05-29T23:30:07.330Z,414.25
2019-05-29T23:32:36.428Z,400.57
2019-05-29T23:35:07.062Z,380.67
2019-05-29T23:37:35.974Z,368.97
2019-05-29T23:40:08.526Z,350.98
2019-05-29T23:42:37.519Z,333.00
2019-05-29T23:45:08.153Z,337.70
2019-05-29T23:47:37.042Z,306.63
2019-05-29T23:50:06.955Z,296.57
2019-05-29T23:52:36.255Z,286.85
2019-05-29T23:55:06.897Z,283.27
2019-05-29T23:57:35.782Z,269.98
